sensor_id;sensor_type;location;lat;lon;timestamp;temperature;humidity
38788;DHT22;24536;45.488;12.238;2023-03-29T00:02:08;12.80;65.60
38788;DHT22;24536;45.488;12.238;2023-03-29T00:09:30;12.60;66.00
38788;DHT22;24536;45.488;12.238;2023-03-29T00:11:58;12.60;66.40
38788;DHT22;24536;45.488;12.238;2023-03-29T00:14:24;12.60;66.30
38788;DHT22;24536;45.488;12.238;2023-03-29T00:16:51;12.60;66.90
38788;DHT22;24536;45.488;12.238;2023-03-29T00:19:17;12.50;67.00
38788;DHT22;24536;45.488;12.238;2023-03-29T00:21:42;12.50;67.30
38788;DHT22;24536;45.488;12.238;2023-03-29T00:24:08;12.50;67.10
38788;DHT22;24536;45.488;12.238;2023-03-29T00:26:34;12.40;67.60
38788;DHT22;24536;45.488;12.238;2023-03-29T00:28:59;12.40;67.40
38788;DHT22;24536;45.488;12.238;2023-03-29T00:31:26;12.40;67.40
38788;DHT22;24536;45.488;12.238;2023-03-29T00:33:52;12.40;67.20
38788;DHT22;24536;45.488;12.238;2023-03-29T00:36:17;12.50;67.40
38788;DHT22;24536;45.488;12.238;2023-03-29T00:38:43;12.50;67.20
38788;DHT22;24536;45.488;12.238;2023-03-29T00:41:09;12.60;67.70
38788;DHT22;24536;45.488;12.238;2023-03-29T00:48:44;12.70;66.90
38788;DHT22;24536;45.488;12.238;2023-03-29T00:51:12;12.70;67.20
38788;DHT22;24536;45.488;12.238;2023-03-29T00:53:43;12.70;66.60
38788;DHT22;24536;45.488;12.238;2023-03-29T00:56:20;12.70;66.60
38788;DHT22;24536;45.488;12.238;2023-03-29T00:59:01;12.70;66.90
38788;DHT22;24536;45.488;12.238;2023-03-29T01:01:50;12.70;66.40
38788;DHT22;24536;45.488;12.238;2023-03-29T01:04:35;12.70;66.60
38788;DHT22;24536;45.488;12.238;2023-03-29T01:09:33;12.70;66.00
38788;DHT22;24536;45.488;12.238;2023-03-29T01:12:03;12.80;66.30
38788;DHT22;24536;45.488;12.238;2023-03-29T01:14:37;12.70;66.20
38788;DHT22;24536;45.488;12.238;2023-03-29T01:17:05;12.70;66.30
38788;DHT22;24536;45.488;12.238;2023-03-29T01:19:37;12.60;65.80
38788;DHT22;24536;45.488;12.238;2023-03-29T01:25:30;12.40;66.40
38788;DHT22;24536;45.488;12.238;2023-03-29T01:28:03;12.40;66.40
38788;DHT22;24536;45.488;12.238;2023-03-29T01:30:47;12.30;66.30
38788;DHT22;24536;45.488;12.238;2023-03-29T01:33:22;12.30;66.80
38788;DHT22;24536;45.488;12.238;2023-03-29T01:36:21;12.30;66.80
38788;DHT22;24536;45.488;12.238;2023-03-29T01:38:57;12.30;66.70
38788;DHT22;24536;45.488;12.238;2023-03-29T01:41:31;12.40;66.60
38788;DHT22;24536;45.488;12.238;2023-03-29T01:44:04;12.40;66.40
38788;DHT22;24536;45.488;12.238;2023-03-29T01:46:51;12.40;66.80
38788;DHT22;24536;45.488;12.238;2023-03-29T01:49:27;12.40;66.10
38788;DHT22;24536;45.488;12.238;2023-03-29T01:52:00;12.40;65.70
38788;DHT22;24536;45.488;12.238;2023-03-29T01:55:01;12.40;65.60
38788;DHT22;24536;45.488;12.238;2023-03-29T01:59:55;12.30;65.60
38788;DHT22;24536;45.488;12.238;2023-03-29T02:02:23;12.20;65.60
38788;DHT22;24536;45.488;12.238;2023-03-29T02:04:53;12.20;65.60
38788;DHT22;24536;45.488;12.238;2023-03-29T02:07:27;12.20;65.70
38788;DHT22;24536;45.488;12.238;2023-03-29T02:14:56;12.10;65.60
38788;DHT22;24536;45.488;12.238;2023-03-29T02:17:24;12.00;65.50
38788;DHT22;24536;45.488;12.238;2023-03-29T02:20:03;12.00;65.70
38788;DHT22;24536;45.488;12.238;2023-03-29T02:25:46;11.90;66.70
38788;DHT22;24536;45.488;12.238;2023-03-29T02:28:14;11.80;67.00
38788;DHT22;24536;45.488;12.238;2023-03-29T02:33:50;11.80;67.30
38788;DHT22;24536;45.488;12.238;2023-03-29T02:36:21;11.90;67.30
38788;DHT22;24536;45.488;12.238;2023-03-29T02:38:51;11.90;67.20
38788;DHT22;24536;45.488;12.238;2023-03-29T02:41:17;11.90;67.30
38788;DHT22;24536;45.488;12.238;2023-03-29T02:43:44;11.90;67.10
38788;DHT22;24536;45.488;12.238;2023-03-29T02:46:11;11.90;67.20
38788;DHT22;24536;45.488;12.238;2023-03-29T02:48:39;11.80;67.60
38788;DHT22;24536;45.488;12.238;2023-03-29T02:51:16;11.80;67.60
38788;DHT22;24536;45.488;12.238;2023-03-29T02:54:14;11.80;67.70
38788;DHT22;24536;45.488;12.238;2023-03-29T02:56:47;11.80;68.20
38788;DHT22;24536;45.488;12.238;2023-03-29T02:59:15;11.80;68.30
38788;DHT22;24536;45.488;12.238;2023-03-29T03:01:43;11.80;68.10
38788;DHT22;24536;45.488;12.238;2023-03-29T03:04:10;11.70;67.70
38788;DHT22;24536;45.488;12.238;2023-03-29T03:06:37;11.60;67.60
38788;DHT22;24536;45.488;12.238;2023-03-29T03:09:04;11.60;68.20
38788;DHT22;24536;45.488;12.238;2023-03-29T03:11:31;11.50;68.30
38788;DHT22;24536;45.488;12.238;2023-03-29T03:16:23;11.50;68.50
38788;DHT22;24536;45.488;12.238;2023-03-29T03:18:49;11.40;68.20
38788;DHT22;24536;45.488;12.238;2023-03-29T03:21:18;11.50;68.20
38788;DHT22;24536;45.488;12.238;2023-03-29T03:23:45;11.50;68.80
38788;DHT22;24536;45.488;12.238;2023-03-29T03:31:05;11.40;68.40
38788;DHT22;24536;45.488;12.238;2023-03-29T03:35:57;11.50;68.20
38788;DHT22;24536;45.488;12.238;2023-03-29T03:38:28;11.60;68.40
38788;DHT22;24536;45.488;12.238;2023-03-29T03:40:57;11.60;68.80
38788;DHT22;24536;45.488;12.238;2023-03-29T03:43:23;11.60;69.20
38788;DHT22;24536;45.488;12.238;2023-03-29T03:45:48;11.60;69.10
38788;DHT22;24536;45.488;12.238;2023-03-29T03:48:14;11.60;69.40
38788;DHT22;24536;45.488;12.238;2023-03-29T03:50:40;11.60;69.50
38788;DHT22;24536;45.488;12.238;2023-03-29T03:53:06;11.60;69.70
38788;DHT22;24536;45.488;12.238;2023-03-29T03:55:32;11.70;69.50
38788;DHT22;24536;45.488;12.238;2023-03-29T03:57:58;11.60;69.90
38788;DHT22;24536;45.488;12.238;2023-03-29T04:00:24;11.60;69.40
38788;DHT22;24536;45.488;12.238;2023-03-29T04:02:51;11.60;69.20
38788;DHT22;24536;45.488;12.238;2023-03-29T04:05:19;11.70;69.70
38788;DHT22;24536;45.488;12.238;2023-03-29T04:07:45;11.60;69.80
38788;DHT22;24536;45.488;12.238;2023-03-29T04:10:11;11.50;69.60
38788;DHT22;24536;45.488;12.238;2023-03-29T04:12:38;11.50;69.60
38788;DHT22;24536;45.488;12.238;2023-03-29T04:15:05;11.50;69.60
38788;DHT22;24536;45.488;12.238;2023-03-29T04:17:31;11.60;69.80
38788;DHT22;24536;45.488;12.238;2023-03-29T04:19:56;11.50;69.10
38788;DHT22;24536;45.488;12.238;2023-03-29T04:22:23;11.60;69.30
38788;DHT22;24536;45.488;12.238;2023-03-29T04:24:50;11.70;69.10
38788;DHT22;24536;45.488;12.238;2023-03-29T04:27:16;11.70;69.00
38788;DHT22;24536;45.488;12.238;2023-03-29T04:29:42;11.70;68.90
38788;DHT22;24536;45.488;12.238;2023-03-29T04:32:11;11.50;68.70
38788;DHT22;24536;45.488;12.238;2023-03-29T04:34:37;11.50;68.40
38788;DHT22;24536;45.488;12.238;2023-03-29T04:37:03;11.50;69.00
38788;DHT22;24536;45.488;12.238;2023-03-29T04:39:35;11.50;68.90
38788;DHT22;24536;45.488;12.238;2023-03-29T04:42:01;11.50;68.90
38788;DHT22;24536;45.488;12.238;2023-03-29T04:44:27;11.30;68.50
38788;DHT22;24536;45.488;12.238;2023-03-29T04:46:53;11.30;68.40
38788;DHT22;24536;45.488;12.238;2023-03-29T04:49:19;11.40;68.60
38788;DHT22;24536;45.488;12.238;2023-03-29T04:51:45;11.40;68.80
38788;DHT22;24536;45.488;12.238;2023-03-29T04:54:11;11.50;68.70
38788;DHT22;24536;45.488;12.238;2023-03-29T04:56:37;11.50;68.50
38788;DHT22;24536;45.488;12.238;2023-03-29T04:59:02;11.40;68.10
38788;DHT22;24536;45.488;12.238;2023-03-29T05:01:28;11.40;67.90
38788;DHT22;24536;45.488;12.238;2023-03-29T05:03:54;11.40;67.80
38788;DHT22;24536;45.488;12.238;2023-03-29T05:06:21;11.40;67.80
38788;DHT22;24536;45.488;12.238;2023-03-29T05:08:46;11.40;67.80
38788;DHT22;24536;45.488;12.238;2023-03-29T05:11:12;11.40;67.30
38788;DHT22;24536;45.488;12.238;2023-03-29T05:13:38;11.50;67.60
38788;DHT22;24536;45.488;12.238;2023-03-29T05:16:05;11.50;66.90
38788;DHT22;24536;45.488;12.238;2023-03-29T05:18:32;11.60;66.90
38788;DHT22;24536;45.488;12.238;2023-03-29T05:20:58;11.50;66.90
38788;DHT22;24536;45.488;12.238;2023-03-29T05:23:24;11.40;67.00
38788;DHT22;24536;45.488;12.238;2023-03-29T05:25:51;11.40;66.90
38788;DHT22;24536;45.488;12.238;2023-03-29T05:28:19;11.40;66.40
38788;DHT22;24536;45.488;12.238;2023-03-29T05:30:46;11.40;66.30
38788;DHT22;24536;45.488;12.238;2023-03-29T05:33:12;11.40;66.10
38788;DHT22;24536;45.488;12.238;2023-03-29T05:35:38;11.50;65.90
38788;DHT22;24536;45.488;12.238;2023-03-29T05:38:04;11.40;65.40
38788;DHT22;24536;45.488;12.238;2023-03-29T05:40:31;11.40;65.50
38788;DHT22;24536;45.488;12.238;2023-03-29T05:42:57;11.40;66.00
38788;DHT22;24536;45.488;12.238;2023-03-29T05:45:24;11.40;65.40
38788;DHT22;24536;45.488;12.238;2023-03-29T05:47:52;11.50;65.80
38788;DHT22;24536;45.488;12.238;2023-03-29T05:50:18;11.60;65.10
38788;DHT22;24536;45.488;12.238;2023-03-29T05:52:44;11.60;66.00
38788;DHT22;24536;45.488;12.238;2023-03-29T05:55:10;11.60;64.80
38788;DHT22;24536;45.488;12.238;2023-03-29T05:57:36;11.50;64.80
38788;DHT22;24536;45.488;12.238;2023-03-29T06:00:06;11.50;68.60
38788;DHT22;24536;45.488;12.238;2023-03-29T06:02:46;11.70;69.50
38788;DHT22;24536;45.488;12.238;2023-03-29T06:05:12;11.80;65.20
38788;DHT22;24536;45.488;12.238;2023-03-29T06:07:38;11.80;65.20
38788;DHT22;24536;45.488;12.238;2023-03-29T06:10:05;11.80;65.10
38788;DHT22;24536;45.488;12.238;2023-03-29T06:12:30;11.80;65.00
38788;DHT22;24536;45.488;12.238;2023-03-29T06:14:57;11.80;64.60
38788;DHT22;24536;45.488;12.238;2023-03-29T06:17:27;11.80;63.90
38788;DHT22;24536;45.488;12.238;2023-03-29T06:22:20;11.80;63.60
38788;DHT22;24536;45.488;12.238;2023-03-29T06:24:46;11.80;63.70
38788;DHT22;24536;45.488;12.238;2023-03-29T06:27:12;11.80;64.10
38788;DHT22;24536;45.488;12.238;2023-03-29T06:29:38;11.80;63.70
38788;DHT22;24536;45.488;12.238;2023-03-29T06:32:04;11.70;64.00
38788;DHT22;24536;45.488;12.238;2023-03-29T06:34:30;11.80;63.50
38788;DHT22;24536;45.488;12.238;2023-03-29T06:36:56;11.70;64.00
38788;DHT22;24536;45.488;12.238;2023-03-29T06:39:22;11.80;63.30
38788;DHT22;24536;45.488;12.238;2023-03-29T06:41:48;11.70;63.50
38788;DHT22;24536;45.488;12.238;2023-03-29T06:46:42;11.70;63.10
38788;DHT22;24536;45.488;12.238;2023-03-29T06:49:07;11.80;63.60
38788;DHT22;24536;45.488;12.238;2023-03-29T06:51:33;11.80;63.60
38788;DHT22;24536;45.488;12.238;2023-03-29T06:53:59;11.70;62.60
38788;DHT22;24536;45.488;12.238;2023-03-29T06:56:25;11.70;62.90
38788;DHT22;24536;45.488;12.238;2023-03-29T06:58:51;11.70;62.40
38788;DHT22;24536;45.488;12.238;2023-03-29T07:01:17;11.70;63.20
38788;DHT22;24536;45.488;12.238;2023-03-29T07:03:42;11.70;62.60
38788;DHT22;24536;45.488;12.238;2023-03-29T07:06:09;11.60;62.20
38788;DHT22;24536;45.488;12.238;2023-03-29T07:08:39;11.80;62.50
38788;DHT22;24536;45.488;12.238;2023-03-29T07:11:13;11.80;62.50
38788;DHT22;24536;45.488;12.238;2023-03-29T07:13:42;11.80;62.00
38788;DHT22;24536;45.488;12.238;2023-03-29T07:16:12;11.80;62.00
38788;DHT22;24536;45.488;12.238;2023-03-29T07:18:42;11.80;61.90
38788;DHT22;24536;45.488;12.238;2023-03-29T07:21:09;11.80;60.00
38788;DHT22;24536;45.488;12.238;2023-03-29T07:23:36;11.80;61.20
38788;DHT22;24536;45.488;12.238;2023-03-29T07:26:03;11.90;61.80
38788;DHT22;24536;45.488;12.238;2023-03-29T07:28:30;12.00;62.00
38788;DHT22;24536;45.488;12.238;2023-03-29T07:31:07;12.20;61.80
38788;DHT22;24536;45.488;12.238;2023-03-29T07:33:35;12.20;58.70
38788;DHT22;24536;45.488;12.238;2023-03-29T07:36:02;12.20;59.50
38788;DHT22;24536;45.488;12.238;2023-03-29T07:38:28;12.30;60.80
38788;DHT22;24536;45.488;12.238;2023-03-29T07:40:54;12.40;61.00
38788;DHT22;24536;45.488;12.238;2023-03-29T07:43:20;12.60;61.00
38788;DHT22;24536;45.488;12.238;2023-03-29T07:45:46;12.60;60.50
38788;DHT22;24536;45.488;12.238;2023-03-29T07:48:12;12.70;60.10
38788;DHT22;24536;45.488;12.238;2023-03-29T07:50:38;12.80;60.40
38788;DHT22;24536;45.488;12.238;2023-03-29T07:53:04;13.00;59.70
38788;DHT22;24536;45.488;12.238;2023-03-29T07:55:30;13.10;57.30
38788;DHT22;24536;45.488;12.238;2023-03-29T07:57:56;13.10;57.70
38788;DHT22;24536;45.488;12.238;2023-03-29T08:00:22;13.20;57.80
38788;DHT22;24536;45.488;12.238;2023-03-29T08:02:49;13.20;56.00
38788;DHT22;24536;45.488;12.238;2023-03-29T08:05:19;13.40;57.30
38788;DHT22;24536;45.488;12.238;2023-03-29T08:07:45;13.40;56.50
38788;DHT22;24536;45.488;12.238;2023-03-29T08:10:15;13.40;56.20
38788;DHT22;24536;45.488;12.238;2023-03-29T08:12:42;13.60;56.40
38788;DHT22;24536;45.488;12.238;2023-03-29T08:15:09;13.80;56.50
38788;DHT22;24536;45.488;12.238;2023-03-29T08:17:35;13.80;57.00
38788;DHT22;24536;45.488;12.238;2023-03-29T08:20:03;14.00;56.00
38788;DHT22;24536;45.488;12.238;2023-03-29T08:22:31;14.00;56.60
38788;DHT22;24536;45.488;12.238;2023-03-29T08:24:57;14.10;56.60
38788;DHT22;24536;45.488;12.238;2023-03-29T08:27:23;14.20;57.10
38788;DHT22;24536;45.488;12.238;2023-03-29T08:29:49;14.30;57.20
38788;DHT22;24536;45.488;12.238;2023-03-29T08:32:15;14.40;56.50
38788;DHT22;24536;45.488;12.238;2023-03-29T08:37:07;14.70;56.60
38788;DHT22;24536;45.488;12.238;2023-03-29T08:39:34;14.70;56.20
38788;DHT22;24536;45.488;12.238;2023-03-29T08:47:33;15.00;56.70
38788;DHT22;24536;45.488;12.238;2023-03-29T08:50:03;15.10;57.30
38788;DHT22;24536;45.488;12.238;2023-03-29T08:52:39;15.10;57.30
38788;DHT22;24536;45.488;12.238;2023-03-29T08:57:55;15.50;56.90
38788;DHT22;24536;45.488;12.238;2023-03-29T09:00:34;15.60;57.20
38788;DHT22;24536;45.488;12.238;2023-03-29T09:03:02;15.60;57.70
38788;DHT22;24536;45.488;12.238;2023-03-29T09:05:39;15.90;57.80
38788;DHT22;24536;45.488;12.238;2023-03-29T09:08:18;16.10;58.40
38788;DHT22;24536;45.488;12.238;2023-03-29T09:11:14;16.20;57.70
38788;DHT22;24536;45.488;12.238;2023-03-29T09:13:54;16.40;57.80
38788;DHT22;24536;45.488;12.238;2023-03-29T09:22:01;17.20;57.80
38788;DHT22;24536;45.488;12.238;2023-03-29T09:27:33;17.20;57.70
38788;DHT22;24536;45.488;12.238;2023-03-29T09:30:16;17.20;58.30
38788;DHT22;24536;45.488;12.238;2023-03-29T09:38:12;17.70;57.00
38788;DHT22;24536;45.488;12.238;2023-03-29T09:40:47;17.70;57.60
38788;DHT22;24536;45.488;12.238;2023-03-29T09:43:17;17.80;57.70
38788;DHT22;24536;45.488;12.238;2023-03-29T09:45:48;18.00;57.70
38788;DHT22;24536;45.488;12.238;2023-03-29T09:48:17;18.30;56.20
38788;DHT22;24536;45.488;12.238;2023-03-29T09:50:47;18.40;55.50
38788;DHT22;24536;45.488;12.238;2023-03-29T09:53:16;18.30;55.00
38788;DHT22;24536;45.488;12.238;2023-03-29T09:55:44;18.30;56.10
38788;DHT22;24536;45.488;12.238;2023-03-29T09:58:14;18.50;55.70
38788;DHT22;24536;45.488;12.238;2023-03-29T10:00:41;18.50;55.60
38788;DHT22;24536;45.488;12.238;2023-03-29T10:03:07;18.70;55.80
38788;DHT22;24536;45.488;12.238;2023-03-29T10:05:35;18.90;55.70
38788;DHT22;24536;45.488;12.238;2023-03-29T10:08:38;19.20;55.30
38788;DHT22;24536;45.488;12.238;2023-03-29T10:11:33;19.40;53.60
38788;DHT22;24536;45.488;12.238;2023-03-29T10:14:02;19.50;53.30
38788;DHT22;24536;45.488;12.238;2023-03-29T10:16:33;19.70;52.70
38788;DHT22;24536;45.488;12.238;2023-03-29T10:19:30;19.90;51.30
38788;DHT22;24536;45.488;12.238;2023-03-29T10:22:01;19.90;50.40
38788;DHT22;24536;45.488;12.238;2023-03-29T10:24:29;20.00;50.50
38788;DHT22;24536;45.488;12.238;2023-03-29T10:27:01;20.10;51.30
38788;DHT22;24536;45.488;12.238;2023-03-29T10:29:41;20.30;52.20
38788;DHT22;24536;45.488;12.238;2023-03-29T10:32:15;20.50;52.00
38788;DHT22;24536;45.488;12.238;2023-03-29T10:34:42;20.60;50.00
38788;DHT22;24536;45.488;12.238;2023-03-29T10:37:10;20.60;51.00
38788;DHT22;24536;45.488;12.238;2023-03-29T10:39:38;20.60;49.10
38788;DHT22;24536;45.488;12.238;2023-03-29T10:42:05;20.60;46.00
38788;DHT22;24536;45.488;12.238;2023-03-29T10:44:34;20.60;47.80
38788;DHT22;24536;45.488;12.238;2023-03-29T10:49:40;20.70;46.50
38788;DHT22;24536;45.488;12.238;2023-03-29T10:52:06;20.70;48.40
38788;DHT22;24536;45.488;12.238;2023-03-29T10:54:34;20.70;46.40
38788;DHT22;24536;45.488;12.238;2023-03-29T10:57:04;20.50;46.10
38788;DHT22;24536;45.488;12.238;2023-03-29T10:59:57;20.60;44.90
38788;DHT22;24536;45.488;12.238;2023-03-29T11:02:56;20.40;44.20
38788;DHT22;24536;45.488;12.238;2023-03-29T11:05:28;20.40;46.70
38788;DHT22;24536;45.488;12.238;2023-03-29T11:22:10;21.30;46.70
38788;DHT22;24536;45.488;12.238;2023-03-29T11:27:44;21.80;43.90
38788;DHT22;24536;45.488;12.238;2023-03-29T11:30:21;21.90;44.20
38788;DHT22;24536;45.488;12.238;2023-03-29T11:32:58;21.90;41.90
38788;DHT22;24536;45.488;12.238;2023-03-29T11:44:14;24.00;41.30
38788;DHT22;24536;45.488;12.238;2023-03-29T11:46:48;25.50;37.10
38788;DHT22;24536;45.488;12.238;2023-03-29T11:49:41;26.60;36.60
38788;DHT22;24536;45.488;12.238;2023-03-29T11:52:21;27.70;36.20
38788;DHT22;24536;45.488;12.238;2023-03-29T11:57:19;29.30;33.20
38788;DHT22;24536;45.488;12.238;2023-03-29T11:59:55;29.50;32.90
38788;DHT22;24536;45.488;12.238;2023-03-29T12:04:58;30.30;32.10
38788;DHT22;24536;45.488;12.238;2023-03-29T12:07:36;30.40;30.40
38788;DHT22;24536;45.488;12.238;2023-03-29T12:10:20;30.40;30.00
38788;DHT22;24536;45.488;12.238;2023-03-29T12:15:23;30.40;29.60
38788;DHT22;24536;45.488;12.238;2023-03-29T12:18:23;29.40;29.50
38788;DHT22;24536;45.488;12.238;2023-03-29T12:20:56;29.40;29.70
38788;DHT22;24536;45.488;12.238;2023-03-29T12:23:23;27.90;30.30
38788;DHT22;24536;45.488;12.238;2023-03-29T12:25:56;27.70;30.90
38788;DHT22;24536;45.488;12.238;2023-03-29T12:31:18;26.20;32.20
38788;DHT22;24536;45.488;12.238;2023-03-29T12:39:19;24.90;34.20
38788;DHT22;24536;45.488;12.238;2023-03-29T12:41:46;25.40;34.90
38788;DHT22;24536;45.488;12.238;2023-03-29T12:44:21;26.00;35.20
38788;DHT22;24536;45.488;12.238;2023-03-29T12:46:55;26.80;33.90
38788;DHT22;24536;45.488;12.238;2023-03-29T12:51:55;27.40;33.10
38788;DHT22;24536;45.488;12.238;2023-03-29T12:54:26;27.80;32.60
38788;DHT22;24536;45.488;12.238;2023-03-29T12:56:56;28.30;32.60
38788;DHT22;24536;45.488;12.238;2023-03-29T12:59:45;28.60;31.80
38788;DHT22;24536;45.488;12.238;2023-03-29T13:04:54;28.80;31.20
38788;DHT22;24536;45.488;12.238;2023-03-29T13:09:57;28.70;30.80
38788;DHT22;24536;45.488;12.238;2023-03-29T13:15:00;27.80;30.20
38788;DHT22;24536;45.488;12.238;2023-03-29T13:20:44;26.20;31.60
38788;DHT22;24536;45.488;12.238;2023-03-29T13:23:31;25.80;32.10
38788;DHT22;24536;45.488;12.238;2023-03-29T13:31:36;24.30;33.90
38788;DHT22;24536;45.488;12.238;2023-03-29T13:39:48;22.80;35.90
38788;DHT22;24536;45.488;12.238;2023-03-29T13:44:49;21.80;37.60
38788;DHT22;24536;45.488;12.238;2023-03-29T13:49:56;21.80;37.90
38788;DHT22;24536;45.488;12.238;2023-03-29T13:52:29;21.50;38.30
38788;DHT22;24536;45.488;12.238;2023-03-29T13:55:22;21.40;39.20
38788;DHT22;24536;45.488;12.238;2023-03-29T13:57:59;21.30;39.00
38788;DHT22;24536;45.488;12.238;2023-03-29T14:00:34;21.20;39.60
38788;DHT22;24536;45.488;12.238;2023-03-29T14:05:39;21.10;40.90
38788;DHT22;24536;45.488;12.238;2023-03-29T14:08:27;21.00;41.60
38788;DHT22;24536;45.488;12.238;2023-03-29T14:10:55;20.90;41.90
38788;DHT22;24536;45.488;12.238;2023-03-29T14:13:22;20.90;41.90
38788;DHT22;24536;45.488;12.238;2023-03-29T14:15:51;21.00;42.20
38788;DHT22;24536;45.488;12.238;2023-03-29T14:18:22;21.00;42.00
38788;DHT22;24536;45.488;12.238;2023-03-29T14:20:53;21.10;42.20
38788;DHT22;24536;45.488;12.238;2023-03-29T14:23:38;21.10;42.50
38788;DHT22;24536;45.488;12.238;2023-03-29T14:26:18;21.10;43.10
38788;DHT22;24536;45.488;12.238;2023-03-29T14:28:46;21.20;43.40
38788;DHT22;24536;45.488;12.238;2023-03-29T14:31:20;21.10;43.10
38788;DHT22;24536;45.488;12.238;2023-03-29T14:33:55;21.00;43.00
38788;DHT22;24536;45.488;12.238;2023-03-29T14:36:21;21.00;43.80
38788;DHT22;24536;45.488;12.238;2023-03-29T14:38:52;21.00;45.60
38788;DHT22;24536;45.488;12.238;2023-03-29T14:41:21;20.90;44.80
38788;DHT22;24536;45.488;12.238;2023-03-29T14:43:47;21.00;56.50
38788;DHT22;24536;45.488;12.238;2023-03-29T14:46:16;20.80;45.50
38788;DHT22;24536;45.488;12.238;2023-03-29T14:51:09;20.50;47.70
38788;DHT22;24536;45.488;12.238;2023-03-29T14:53:35;20.50;47.60
38788;DHT22;24536;45.488;12.238;2023-03-29T14:56:04;20.40;46.60
38788;DHT22;24536;45.488;12.238;2023-03-29T14:58:33;20.30;46.80
38788;DHT22;24536;45.488;12.238;2023-03-29T15:01:16;20.20;47.10
38788;DHT22;24536;45.488;12.238;2023-03-29T15:04:06;20.20;47.00
38788;DHT22;24536;45.488;12.238;2023-03-29T15:09:03;20.10;47.50
38788;DHT22;24536;45.488;12.238;2023-03-29T15:11:29;20.10;48.10
38788;DHT22;24536;45.488;12.238;2023-03-29T15:14:04;20.10;48.80
38788;DHT22;24536;45.488;12.238;2023-03-29T15:16:31;20.20;48.90
38788;DHT22;24536;45.488;12.238;2023-03-29T15:18:59;19.70;48.80
38788;DHT22;24536;45.488;12.238;2023-03-29T15:21:30;20.10;48.90
38788;DHT22;24536;45.488;12.238;2023-03-29T15:26:34;20.00;49.70
38788;DHT22;24536;45.488;12.238;2023-03-29T15:29:09;19.90;49.80
38788;DHT22;24536;45.488;12.238;2023-03-29T15:31:38;19.80;49.90
38788;DHT22;24536;45.488;12.238;2023-03-29T15:34:11;19.80;50.60
38788;DHT22;24536;45.488;12.238;2023-03-29T15:36:44;19.80;51.20
38788;DHT22;24536;45.488;12.238;2023-03-29T15:39:12;19.80;51.40
38788;DHT22;24536;45.488;12.238;2023-03-29T15:41:39;19.70;51.50
38788;DHT22;24536;45.488;12.238;2023-03-29T15:44:05;19.70;51.10
38788;DHT22;24536;45.488;12.238;2023-03-29T15:46:31;19.60;51.20
38788;DHT22;24536;45.488;12.238;2023-03-29T15:48:57;19.60;51.10
38788;DHT22;24536;45.488;12.238;2023-03-29T15:51:23;19.60;51.60
38788;DHT22;24536;45.488;12.238;2023-03-29T15:53:49;19.50;52.90
38788;DHT22;24536;45.488;12.238;2023-03-29T15:56:16;19.50;52.60
38788;DHT22;24536;45.488;12.238;2023-03-29T15:58:43;19.40;53.10
38788;DHT22;24536;45.488;12.238;2023-03-29T16:01:26;19.30;52.90
38788;DHT22;24536;45.488;12.238;2023-03-29T16:04:02;19.10;53.20
38788;DHT22;24536;45.488;12.238;2023-03-29T16:06:29;19.10;53.70
38788;DHT22;24536;45.488;12.238;2023-03-29T16:08:55;19.10;54.30
38788;DHT22;24536;45.488;12.238;2023-03-29T16:11:21;19.00;54.50
38788;DHT22;24536;45.488;12.238;2023-03-29T16:13:46;19.00;54.10
38788;DHT22;24536;45.488;12.238;2023-03-29T16:16:12;18.90;54.50
38788;DHT22;24536;45.488;12.238;2023-03-29T16:18:38;18.90;55.00
38788;DHT22;24536;45.488;12.238;2023-03-29T16:21:04;18.90;55.60
38788;DHT22;24536;45.488;12.238;2023-03-29T16:23:29;18.80;55.70
38788;DHT22;24536;45.488;12.238;2023-03-29T16:25:55;18.70;55.40
38788;DHT22;24536;45.488;12.238;2023-03-29T16:28:23;18.60;56.00
38788;DHT22;24536;45.488;12.238;2023-03-29T16:30:49;18.60;58.90
38788;DHT22;24536;45.488;12.238;2023-03-29T16:35:42;18.50;56.20
38788;DHT22;24536;45.488;12.238;2023-03-29T16:38:08;18.40;56.80
38788;DHT22;24536;45.488;12.238;2023-03-29T16:40:34;18.40;56.90
38788;DHT22;24536;45.488;12.238;2023-03-29T16:43:00;18.40;57.70
38788;DHT22;24536;45.488;12.238;2023-03-29T16:45:26;18.30;57.60
38788;DHT22;24536;45.488;12.238;2023-03-29T16:47:51;18.20;57.50
38788;DHT22;24536;45.488;12.238;2023-03-29T16:50:18;18.20;57.40
38788;DHT22;24536;45.488;12.238;2023-03-29T16:52:45;18.20;57.30
38788;DHT22;24536;45.488;12.238;2023-03-29T16:55:13;18.20;57.80
38788;DHT22;24536;45.488;12.238;2023-03-29T16:57:40;18.10;57.60
38788;DHT22;24536;45.488;12.238;2023-03-29T17:00:07;18.00;58.50
38788;DHT22;24536;45.488;12.238;2023-03-29T17:02:35;18.10;58.90
38788;DHT22;24536;45.488;12.238;2023-03-29T17:05:01;18.10;59.70
38788;DHT22;24536;45.488;12.238;2023-03-29T17:07:27;18.00;60.50
38788;DHT22;24536;45.488;12.238;2023-03-29T17:09:54;17.90;60.50
38788;DHT22;24536;45.488;12.238;2023-03-29T17:12:20;17.90;60.90
38788;DHT22;24536;45.488;12.238;2023-03-29T17:14:46;17.90;61.30
38788;DHT22;24536;45.488;12.238;2023-03-29T17:17:12;17.90;61.70
38788;DHT22;24536;45.488;12.238;2023-03-29T17:19:38;17.80;61.80
38788;DHT22;24536;45.488;12.238;2023-03-29T17:22:04;17.80;62.30
38788;DHT22;24536;45.488;12.238;2023-03-29T17:26:56;17.70;62.60
38788;DHT22;24536;45.488;12.238;2023-03-29T17:29:22;17.70;63.40
38788;DHT22;24536;45.488;12.238;2023-03-29T17:31:47;17.60;63.90
38788;DHT22;24536;45.488;12.238;2023-03-29T17:34:14;17.60;64.60
38788;DHT22;24536;45.488;12.238;2023-03-29T17:36:39;17.60;65.00
38788;DHT22;24536;45.488;12.238;2023-03-29T17:39:09;17.50;65.20
38788;DHT22;24536;45.488;12.238;2023-03-29T17:41:35;17.50;65.40
38788;DHT22;24536;45.488;12.238;2023-03-29T17:44:01;17.40;65.50
38788;DHT22;24536;45.488;12.238;2023-03-29T17:46:27;17.40;65.70
38788;DHT22;24536;45.488;12.238;2023-03-29T17:48:53;17.40;66.20
38788;DHT22;24536;45.488;12.238;2023-03-29T17:51:19;17.30;65.80
38788;DHT22;24536;45.488;12.238;2023-03-29T17:53:45;17.30;66.30
38788;DHT22;24536;45.488;12.238;2023-03-29T17:56:13;17.20;65.90
38788;DHT22;24536;45.488;12.238;2023-03-29T17:58:39;17.20;66.50
38788;DHT22;24536;45.488;12.238;2023-03-29T18:01:06;17.20;66.60
38788;DHT22;24536;45.488;12.238;2023-03-29T18:03:32;17.20;66.60
38788;DHT22;24536;45.488;12.238;2023-03-29T18:05:58;17.10;67.10
38788;DHT22;24536;45.488;12.238;2023-03-29T18:08:24;17.10;67.40
38788;DHT22;24536;45.488;12.238;2023-03-29T18:10:49;17.10;67.40